Auburn, New Hampshire
Current Conditions -  °F | °C
As of 3:53 AM on Friday 28 Nov 2014 (Local Time) from KMHT Reporting Station
Light Snow Light Snow  
Wind Chill: -7°   Ceiling: 4700
Heat Index: -3°   Visibility: 4mi
Dew Point: -4°   Wind: 7mph
Humidity: 89%   Direction: 330°NNW
Pressure: 30"   Gusts: NA
Location:  43°N, 71.35°W
Report Text: KMHT 280853Z 33006KT 4SM -SN BR OVC047 M03/M04 A3000 RMK AO2 SLP177 P0000 60004 T10281044 51003
Loading
Personal Weather Stations






























Interactive Weather Map New forecast layout! Learn more

10-Day Weather Forecast

Advertisements
Track Severe Weather on mobile